Schwertner, TX (76573)

4:57 AM CST on December 07, 2016 (GMT -0600)
APRSWXNET | | Change Station

Elev 626 ft 30.76 °N, 97.50 °W | Updated 16 minutes ago

Clear
Clear
39 °F
Feels Like 39 °F
N
0
Wind Variable Wind from North
Gusts 0.0 mph

Today
High -- | Low -- °F
--% Chance of Precip.
Yesterday
High -- | Low -- °F
Precip. -- in
Pressure 30.04 in
Visibility 8.0 miles
Clouds Clear
Windchill 39 °F
Dew Point 38 °F
Humidity 96%
Rainfall in
Snow Depth Not available.
7:15 AM 5:28 PM
Waxing Crescent, 51% visible
METAR KGTU 071055Z 00000KT 8SM CLR 03/02 A3004 RMK AO1
Pressure 30.04 in
Visibility 8.0 miles
Clouds Clear
Windchill 39 °F
Dew Point 38 °F
Humidity 96%
Rainfall in
Snow Depth Not available.
7:15 AM 5:28 PM
Waxing Crescent, 51% visible
METAR KGTU 071055Z 00000KT 8SM CLR 03/02 A3004 RMK AO1

10-Day Weather Forecast

Almanac

Astronomy

Dec. 07, 2016 Rise Set
Actual Time
Civil Twilight
Nautical Twilight
Astronomical Twilight
Moon
Length of Visible Light
Length of Day
Tomorrow will be .
, % of the Moon is Illuminated

Today's Extremes

State Highs State Lows

Community

WunderPhotos

Upload Photos

1,956,111 photos uploaded!

WunderBlog® & News

Nearby

Air Quality

  Air Quality AQ Index Pollutant
Not available.

Snow Depth

Station Depth Elevation

Earthquake Activity

City Distance Mag. Time & Date
Minimum magnitude displayed is 2.5.

Coastal Water Temperatures

Place Temperature

Stations

Nearby Weather Stations

Station Location Temp. Windchill Dew Point Humidity Wind Precip. Elev Updated Type
                   

Watches & Warnings

There are currently no watches in effect.